Time;durP1;ratioP1;P1;durP2;ratioP2;P2;SDS_P1;SDS_P2;PMS_P1;PMS_P2;Temp;Humidity;BMP_temperature;BMP_pressure;BME280_temperature;BME280_humidity;BME280_pressure;Samples;Min_cycle;Max_cycle;Signal;HPM_P1;HPM_P2
2023/04/09 00:01:07;;;;;;;8.40;6.18;;;;;;;11.66;56.34;97870.84;4922964;28;20264;-83
2023/04/09 00:03:33;;;;;;;8.43;6.22;;;;;;;11.64;56.34;97863.25;4933208;28;20481;-83
2023/04/09 00:05:58;;;;;;;8.10;6.20;;;;;;;11.55;56.53;97865.44;4925911;28;20292;-83
2023/04/09 00:08:24;;;;;;;7.57;5.57;;;;;;;11.49;56.34;97857.75;4907629;28;20338;-84
2023/04/09 00:10:51;;;;;;;9.10;6.55;;;;;;;11.44;56.50;97867.03;4944004;28;20344;-84
2023/04/09 00:13:17;;;;;;;8.18;6.28;;;;;;;11.42;56.84;97865.72;4930128;28;20166;-83
2023/04/09 00:15:42;;;;;;;7.95;5.97;;;;;;;11.31;56.81;97861.31;4943915;28;20337;-83
2023/04/09 00:18:08;;;;;;;9.07;6.13;;;;;;;11.35;56.71;97863.22;4932030;28;20290;-84
2023/04/09 00:20:33;;;;;;;8.52;5.47;;;;;;;11.27;57.13;97847.94;4921674;28;20286;-84
2023/04/09 00:22:58;;;;;;;7.75;5.45;;;;;;;11.27;56.74;97858.38;4922132;28;20080;-84
2023/04/09 00:25:24;;;;;;;8.20;5.88;;;;;;;11.18;57.36;97850.13;4914115;28;20692;-84
2023/04/09 00:27:49;;;;;;;10.07;6.60;;;;;;;11.15;56.95;97853.19;4911608;28;20464;-84
2023/04/09 00:30:15;;;;;;;7.53;5.80;;;;;;;11.13;57.58;97854.47;4928130;28;20179;-83
2023/04/09 00:32:40;;;;;;;7.68;5.65;;;;;;;11.00;58.04;97852.91;4909446;28;20351;-83
2023/04/09 00:35:06;;;;;;;8.95;6.75;;;;;;;10.79;58.08;97839.44;4935996;28;20601;-84
2023/04/09 00:37:32;;;;;;;8.30;5.85;;;;;;;10.80;58.16;97853.28;4923584;28;20034;-83
2023/04/09 00:39:57;;;;;;;7.18;5.15;;;;;;;10.79;57.96;97851.69;4917467;28;20645;-83
2023/04/09 00:42:23;;;;;;;8.20;5.57;;;;;;;10.73;58.07;97853.41;4924069;28;20030;-82
2023/04/09 00:44:48;;;;;;;6.30;4.95;;;;;;;10.76;57.92;97854.75;4937496;28;20018;-83
2023/04/09 00:47:14;;;;;;;9.32;5.43;;;;;;;10.72;57.97;97851.03;4940360;28;20108;-83
2023/04/09 00:49:39;;;;;;;6.13;4.57;;;;;;;10.73;57.83;97863.81;4954393;28;20246;-84
2023/04/09 00:52:05;;;;;;;8.02;5.15;;;;;;;10.60;58.03;97846.59;4926199;28;20025;-84
2023/04/09 00:54:31;;;;;;;6.95;5.22;;;;;;;10.57;57.83;97854.88;4943029;28;20022;-84
2023/04/09 00:56:56;;;;;;;6.85;5.40;;;;;;;10.52;58.39;97852.19;4900501;28;20431;-82
2023/04/09 00:59:24;;;;;;;6.93;4.97;;;;;;;10.52;58.67;97862.59;4928306;28;20034;-83
2023/04/09 01:01:50;;;;;;;7.57;5.55;;;;;;;10.42;58.97;97857.16;4948071;23;20925;-81
2023/04/09 01:04:15;;;;;;;7.35;5.40;;;;;;;10.35;59.33;97846.03;4910363;28;20261;-80
2023/04/09 01:06:51;;;;;;;6.97;5.32;;;;;;;10.53;58.74;97858.94;4896494;28;20193;-81
2023/04/09 01:09:42;;;;;;;7.28;5.88;;;;;;;10.45;58.76;97856.69;4898362;28;20506;-81
2023/04/09 01:12:17;;;;;;;6.38;4.97;;;;;;;10.39;59.57;97857.59;4940349;28;20171;-81
2023/04/09 01:14:58;;;;;;;8.07;5.97;;;;;;;10.42;59.19;97852.72;4930460;28;20327;-80
2023/04/09 01:17:31;;;;;;;8.35;6.15;;;;;;;10.29;59.54;97852.91;4944895;28;20273;-78
2023/04/09 01:20:07;;;;;;;7.68;5.30;;;;;;;10.38;59.36;97853.41;4926132;28;20319;-78
2023/04/09 01:22:48;;;;;;;6.05;4.90;;;;;;;10.47;59.12;97855.44;4928666;28;20285;-78
2023/04/09 01:25:33;;;;;;;7.95;5.03;;;;;;;10.54;58.96;97850.13;4946650;28;20287;-78
2023/04/09 01:28:15;;;;;;;7.85;5.55;;;;;;;10.62;58.77;97852.38;4927964;28;20333;-78
2023/04/09 01:30:43;;;;;;;7.95;5.50;;;;;;;10.52;58.70;97854.78;4946084;28;20276;-78
2023/04/09 01:33:10;;;;;;;8.77;5.55;;;;;;;10.48;58.96;97849.22;4913034;28;20275;-79
2023/04/09 01:35:36;;;;;;;7.93;5.32;;;;;;;10.44;58.78;97852.50;4910153;28;20633;-78
2023/04/09 01:38:02;;;;;;;7.60;5.50;;;;;;;10.40;58.55;97844.38;4912212;28;20206;-78
2023/04/09 01:40:28;;;;;;;6.50;5.00;;;;;;;10.43;59.05;97853.53;4943775;28;20259;-78
2023/04/09 01:42:54;;;;;;;6.93;5.30;;;;;;;10.42;59.00;97854.56;4926830;28;20288;-78
2023/04/09 01:45:20;;;;;;;7.20;4.88;;;;;;;10.42;59.08;97854.56;4915073;28;20268;-78
2023/04/09 01:47:45;;;;;;;6.63;5.00;;;;;;;10.44;58.92;97853.28;4915115;28;20465;-78
2023/04/09 01:50:11;;;;;;;7.13;5.55;;;;;;;10.47;59.17;97858.06;4930529;28;20243;-78
2023/04/09 01:52:36;;;;;;;8.07;6.07;;;;;;;10.42;59.06;97851.94;4894306;28;20209;-78
2023/04/09 01:55:02;;;;;;;6.57;4.85;;;;;;;10.42;59.37;97851.94;4928671;28;20107;-78
2023/04/09 01:57:27;;;;;;;7.43;5.53;;;;;;;10.43;59.25;97849.09;4948552;28;20544;-78
2023/04/09 01:59:53;;;;;;;8.25;5.30;;;;;;;10.43;59.27;97850.91;4918292;28;20393;-78
2023/04/09 02:02:55;;;;;;;8.30;5.35;;;;;;;10.60;59.19;97854.41;4926975;28;20358;-78
2023/04/09 02:05:25;;;;;;;7.63;5.30;;;;;;;10.57;58.92;97861.88;4913454;28;20283;-78
2023/04/09 02:07:55;;;;;;;9.07;5.75;;;;;;;10.60;58.72;97854.41;4914225;28;20197;-78
2023/04/09 02:10:26;;;;;;;7.60;5.10;;;;;;;10.58;59.08;97856.47;4924058;28;20273;-78
2023/04/09 02:12:52;;;;;;;7.63;5.25;;;;;;;10.51;58.77;97853.19;4892844;28;20753;-78
2023/04/09 02:15:21;;;;;;;6.90;4.93;;;;;;;10.64;58.65;97852.97;4907202;28;20456;-78
2023/04/09 02:17:46;;;;;;;7.35;5.43;;;;;;;10.63;58.02;97855.78;4919171;28;20181;-78
2023/04/09 02:20:16;;;;;;;6.45;5.15;;;;;;;10.71;58.22;97860.66;4920082;28;20093;-78
2023/04/09 02:22:42;;;;;;;7.43;4.80;;;;;;;10.62;58.80;97857.56;4922044;28;20205;-79
2023/04/09 02:25:07;;;;;;;7.60;5.43;;;;;;;10.63;58.44;97856.56;4917670;28;20194;-77
2023/04/09 02:27:32;;;;;;;9.25;5.30;;;;;;;10.61;58.64;97857.84;4906576;28;20287;-78
2023/04/09 02:29:58;;;;;;;6.72;4.82;;;;;;;10.58;58.49;97856.47;4905238;28;20396;-78
2023/04/09 02:32:23;;;;;;;6.63;4.60;;;;;;;10.60;58.54;97864.03;4915934;28;20522;-78
2023/04/09 02:34:49;;;;;;;7.15;4.80;;;;;;;10.60;58.31;97854.41;4905719;28;20224;-78
2023/04/09 02:37:14;;;;;;;7.57;5.05;;;;;;;10.64;58.13;97854.75;4921746;28;20216;-78
2023/04/09 02:39:39;;;;;;;7.15;4.78;;;;;;;10.60;58.07;97854.41;4925920;28;20335;-78
2023/04/09 02:42:06;;;;;;;7.22;4.68;;;;;;;10.63;58.21;97851.38;4907489;28;20154;-78
2023/04/09 02:44:32;;;;;;;7.20;4.97;;;;;;;10.65;58.28;97857.13;4891809;28;20260;-78
2023/04/09 02:46:57;;;;;;;8.15;5.45;;;;;;;10.66;58.56;97861.34;4907675;28;20193;-78
2023/04/09 02:49:22;;;;;;;7.60;5.60;;;;;;;10.60;58.12;97844.00;4912973;28;20261;-78
2023/04/09 02:51:48;;;;;;;7.57;4.68;;;;;;;10.64;58.24;97852.97;4927917;28;20261;-78
2023/04/09 02:54:13;;;;;;;8.32;4.95;;;;;;;10.64;58.29;97855.56;4889763;28;20356;-78
2023/04/09 02:56:39;;;;;;;6.78;4.88;;;;;;;10.58;58.12;97853.06;4894113;28;20352;-78
2023/04/09 02:59:04;;;;;;;7.88;5.07;;;;;;;10.54;58.44;97850.13;4926342;28;20366;-78
2023/04/09 03:01:30;;;;;;;7.75;5.75;;;;;;;10.47;58.71;97844.25;4923339;28;20404;-81
2023/04/09 03:03:55;;;;;;;8.40;5.70;;;;;;;10.46;59.03;97845.25;4911740;28;20202;-80
2023/04/09 03:06:20;;;;;;;6.88;5.05;;;;;;;10.45;58.74;97847.09;4888126;28;20249;-81
2023/04/09 03:08:46;;;;;;;8.27;5.57;;;;;;;10.48;59.11;97853.63;4888318;28;20201;-80
2023/04/09 03:11:11;;;;;;;7.53;4.88;;;;;;;10.49;59.05;97839.59;4944754;28;20291;-81
2023/04/09 03:13:36;;;;;;;6.82;5.20;;;;;;;10.40;59.45;97833.94;4924815;28;20410;-80
2023/04/09 03:16:02;;;;;;;7.32;5.07;;;;;;;10.49;59.05;97843.00;4928492;28;20099;-80
2023/04/09 03:18:27;;;;;;;8.15;5.53;;;;;;;10.53;58.51;97840.72;4928104;28;20236;-81
2023/04/09 03:20:53;;;;;;;6.30;4.53;;;;;;;10.52;58.59;97841.75;4927649;28;20187;-81
2023/04/09 03:23:18;;;;;;;6.75;5.07;;;;;;;10.48;58.49;97832.81;4910619;28;20285;-78
2023/04/09 03:25:44;;;;;;;10.18;5.60;;;;;;;10.48;58.45;97832.81;4896864;28;20342;-78
2023/04/09 03:28:09;;;;;;;7.13;5.43;;;;;;;10.42;58.33;97833.72;4910790;28;20279;-78
2023/04/09 03:30:34;;;;;;;6.55;5.07;;;;;;;10.41;58.76;97826.94;4929106;28;20295;-78
2023/04/09 03:33:00;;;;;;;8.38;5.63;;;;;;;10.39;58.49;97831.56;4928390;28;20421;-78
2023/04/09 03:35:25;;;;;;;8.20;5.15;;;;;;;10.32;58.63;97823.09;4923798;28;20217;-78
2023/04/09 03:37:51;;;;;;;8.55;5.65;;;;;;;10.25;58.80;97823.94;4896648;28;20132;-78
2023/04/09 03:40:16;;;;;;;8.88;5.25;;;;;;;10.23;59.17;97819.97;4910090;28;20201;-78
2023/04/09 03:42:42;;;;;;;7.53;5.15;;;;;;;10.23;59.27;97815.59;4922178;28;20436;-78
2023/04/09 03:45:08;;;;;;;7.57;4.90;;;;;;;10.21;59.10;97822.81;4900503;28;20204;-78
2023/04/09 03:47:33;;;;;;;8.00;5.60;;;;;;;10.17;58.91;97824.28;4910034;28;20328;-79
2023/04/09 03:49:58;;;;;;;8.30;5.43;;;;;;;10.18;58.85;97820.66;4917496;28;20245;-78
2023/04/09 03:52:24;;;;;;;8.02;5.35;;;;;;;10.21;59.10;97820.22;4911361;28;20196;-78
2023/04/09 03:54:49;;;;;;;7.38;5.03;;;;;;;10.22;58.89;97823.63;4903298;28;20210;-78
2023/04/09 03:57:15;;;;;;;8.27;5.55;;;;;;;10.22;59.09;97824.41;4892856;28;20441;-79
2023/04/09 03:59:40;;;;;;;9.10;5.50;;;;;;;10.12;59.04;97821.56;4912245;28;20322;-78
2023/04/09 04:02:06;;;;;;;8.30;5.22;;;;;;;10.11;59.03;97820.00;4910824;28;20272;-78
2023/04/09 04:04:31;;;;;;;8.70;5.05;;;;;;;10.12;58.68;97817.13;4907254;28;20297;-78
2023/04/09 04:06:56;;;;;;;7.78;5.13;;;;;;;10.06;58.83;97818.06;4924080;28;20409;-79
2023/04/09 04:09:22;;;;;;;9.10;5.80;;;;;;;10.07;58.93;97813.63;4916437;28;20167;-78
2023/04/09 04:11:47;;;;;;;8.82;5.50;;;;;;;9.92;58.91;97817.47;4889239;28;20197;-79
2023/04/09 04:14:13;;;;;;;7.68;5.25;;;;;;;9.82;59.53;97819.00;4900531;28;20298;-78
2023/04/09 04:16:41;;;;;;;7.53;4.80;;;;;;;9.87;59.17;97811.34;4907211;28;20356;-78
2023/04/09 04:19:06;;;;;;;7.15;4.63;;;;;;;9.89;58.99;97823.13;4921328;28;20181;-78
2023/04/09 04:21:32;;;;;;;8.27;4.90;;;;;;;9.84;58.91;97823.00;4901569;28;20185;-78
2023/04/09 04:23:57;;;;;;;8.82;5.13;;;;;;;9.83;59.00;97823.22;4924091;28;20207;-78
2023/04/09 04:26:23;;;;;;;8.95;5.25;;;;;;;9.80;58.73;97828.84;4942291;28;20377;-79
2023/04/09 04:28:48;;;;;;;6.35;4.55;;;;;;;9.73;58.67;97828.94;4907634;28;20374;-78
2023/04/09 04:31:14;;;;;;;7.35;4.22;;;;;;;9.73;58.69;97818.53;4894109;28;20346;-78
2023/04/09 04:33:41;;;;;;;7.72;5.05;;;;;;;9.69;58.69;97822.63;4888726;28;20367;-78
2023/04/09 04:36:11;;;;;;;6.25;3.78;;;;;;;9.73;58.90;97829.75;4909999;28;20184;-78
2023/04/09 04:38:37;;;;;;;7.20;4.57;;;;;;;9.68;58.46;97832.22;4913653;28;20327;-78
2023/04/09 04:41:03;;;;;;;6.85;4.35;;;;;;;9.64;58.59;97830.28;4929471;28;20386;-79
2023/04/09 04:43:29;;;;;;;7.30;5.00;;;;;;;9.59;58.74;97825.75;4896524;28;20308;-79
2023/04/09 04:45:54;;;;;;;7.90;5.45;;;;;;;9.55;58.57;97828.00;4925812;28;20257;-78
2023/04/09 04:48:20;;;;;;;6.20;4.45;;;;;;;9.53;58.97;97829.25;4947679;28;20162;-79
2023/04/09 04:50:46;;;;;;;8.85;5.32;;;;;;;9.51;58.96;97826.06;4925594;28;20274;-78
2023/04/09 04:53:11;;;;;;;7.65;4.88;;;;;;;9.48;59.00;97829.91;4911879;28;20759;-79
2023/04/09 04:55:38;;;;;;;8.18;4.97;;;;;;;9.49;58.91;97828.91;4930399;28;20149;-78
2023/04/09 04:58:04;;;;;;;6.63;5.07;;;;;;;9.45;58.89;97826.94;4915652;28;20298;-78
2023/04/09 05:00:30;;;;;;;7.90;4.82;;;;;;;9.47;58.95;97832.72;4931421;28;20413;-78
2023/04/09 05:02:56;;;;;;;8.27;5.15;;;;;;;9.41;58.97;97829.19;4929673;28;20162;-78
2023/04/09 05:05:21;;;;;;;8.57;5.32;;;;;;;9.35;58.64;97828.25;4898504;28;20397;-78
2023/04/09 05:07:46;;;;;;;6.53;4.80;;;;;;;9.31;58.83;97834.13;4931043;28;20638;-78
2023/04/09 05:10:12;;;;;;;7.93;5.38;;;;;;;9.23;58.64;97832.59;4919362;28;20249;-78
2023/04/09 05:12:37;;;;;;;7.38;5.20;;;;;;;9.18;58.64;97841.09;4929513;28;20141;-78
2023/04/09 05:15:03;;;;;;;7.65;5.70;;;;;;;9.17;58.96;97852.47;4914839;28;20451;-81
2023/04/09 05:17:28;;;;;;;8.40;5.53;;;;;;;9.13;59.13;97842.72;4930140;28;20212;-81
2023/04/09 05:19:54;;;;;;;7.72;5.28;;;;;;;9.15;58.99;97840.69;4898140;28;20217;-81
2023/04/09 05:22:19;;;;;;;7.60;4.97;;;;;;;9.13;58.75;97837.53;4929038;28;20693;-81
2023/04/09 05:24:45;;;;;;;6.65;4.90;;;;;;;9.09;58.56;97839.78;4915519;28;20345;-81
2023/04/09 05:27:10;;;;;;;8.27;4.93;;;;;;;9.09;59.06;97847.56;4913784;28;20664;-81
2023/04/09 05:29:36;;;;;;;8.55;4.68;;;;;;;9.02;58.64;97843.47;4917318;28;20285;-82
2023/04/09 05:32:01;;;;;;;9.77;5.63;;;;;;;9.09;59.20;97850.16;4916376;28;20234;-79
2023/04/09 05:34:26;;;;;;;7.88;5.40;;;;;;;9.12;59.10;97847.13;4905969;28;20321;-78
2023/04/09 05:36:53;;;;;;;9.88;5.55;;;;;;;9.19;59.33;97850.44;4915363;28;20173;-79
2023/04/09 05:39:19;;;;;;;9.77;5.60;;;;;;;9.13;60.11;97846.13;4913661;28;20260;-79
2023/04/09 05:41:45;;;;;;;10.68;6.45;;;;;;;9.15;60.53;97851.09;4927123;28;20266;-79
2023/04/09 05:44:11;;;;;;;10.65;6.97;;;;;;;9.18;60.25;97850.66;4902389;28;20180;-79
2023/04/09 05:46:37;;;;;;;48.25;36.63;;;;;;;9.14;60.59;97852.91;4902160;28;20282;-79
2023/04/09 05:49:02;;;;;;;19.08;13.07;;;;;;;9.15;60.09;97854.50;4914453;28;20197;-79
2023/04/09 05:51:28;;;;;;;14.23;10.02;;;;;;;9.17;60.13;97849.88;4899793;28;20174;-79
2023/04/09 05:53:53;;;;;;;13.50;9.05;;;;;;;9.22;60.21;97853.63;4913635;28;20209;-79
2023/04/09 05:56:21;;;;;;;12.60;7.95;;;;;;;9.25;60.55;97842.78;4906733;28;20253;-79
2023/04/09 05:58:47;;;;;;;12.95;8.02;;;;;;;9.23;60.39;97855.22;4913934;28;20271;-79
2023/04/09 06:01:12;;;;;;;24.83;16.20;;;;;;;9.36;60.40;97860.25;4931319;28;20564;-78
2023/04/09 06:03:38;;;;;;;17.13;10.93;;;;;;;9.48;59.96;97855.88;4912089;28;20736;-79
2023/04/09 06:06:03;;;;;;;11.98;7.68;;;;;;;9.60;59.75;97857.75;4923266;28;20245;-78
2023/04/09 06:08:29;;;;;;;13.45;8.20;;;;;;;9.69;59.08;97852.00;4896821;28;20181;-80
2023/04/09 06:10:54;;;;;;;20.25;14.10;;;;;;;9.76;59.16;97857.13;4925503;28;20259;-79
2023/04/09 06:13:20;;;;;;;19.35;13.02;;;;;;;9.85;58.85;97858.41;4906123;28;20761;-79
2023/04/09 06:15:45;;;;;;;22.45;15.20;;;;;;;9.96;58.37;97859.44;4907916;28;20153;-80
2023/04/09 06:18:11;;;;;;;22.65;16.95;;;;;;;10.07;58.58;97850.06;4944485;28;20193;-79
2023/04/09 06:20:36;;;;;;;15.70;11.73;;;;;;;10.19;58.03;97856.06;4910684;28;20324;-79
2023/04/09 06:23:01;;;;;;;22.27;13.43;;;;;;;10.22;57.77;97863.44;4895563;28;20217;-79
2023/04/09 06:25:27;;;;;;;17.90;11.55;;;;;;;10.31;57.63;97861.28;4929418;28;20327;-79
2023/04/09 06:27:52;;;;;;;20.08;13.30;;;;;;;10.48;57.19;97866.66;4911349;28;20417;-79
2023/04/09 06:30:18;;;;;;;15.25;9.85;;;;;;;10.49;57.05;97860.44;4897898;28;20213;-79
2023/04/09 06:32:44;;;;;;;11.50;7.47;;;;;;;10.62;56.97;97867.22;4909108;28;20322;-79
2023/04/09 06:35:10;;;;;;;16.17;8.05;;;;;;;10.77;56.78;97864.94;4918767;28;20249;-79
2023/04/09 06:37:35;;;;;;;11.60;7.43;;;;;;;10.82;56.30;97865.03;4911620;28;20130;-79
2023/04/09 06:40:01;;;;;;;10.50;6.53;;;;;;;10.76;56.06;97871.19;4910271;28;20186;-81
2023/04/09 06:42:26;;;;;;;11.00;6.93;;;;;;;10.77;56.48;97867.53;4928833;28;20246;-81
2023/04/09 06:44:52;;;;;;;16.88;10.10;;;;;;;10.96;56.19;97876.00;4930171;28;20108;-79
2023/04/09 06:47:17;;;;;;;21.13;11.85;;;;;;;11.10;55.49;97876.56;4921933;28;20631;-79
2023/04/09 06:49:42;;;;;;;16.55;11.15;;;;;;;11.10;55.09;97880.97;4910563;28;20197;-79
2023/04/09 06:52:08;;;;;;;12.05;7.70;;;;;;;11.25;55.61;97876.06;4910773;28;20404;-79
2023/04/09 06:54:33;;;;;;;11.88;8.13;;;;;;;11.27;54.78;97875.84;4926461;28;20183;-79
2023/04/09 06:56:59;;;;;;;10.75;7.00;;;;;;;11.53;54.90;97871.91;4893739;28;20210;-79
2023/04/09 06:59:24;;;;;;;12.18;8.43;;;;;;;11.71;53.89;97874.31;4929024;28;20312;-79
2023/04/09 07:01:49;;;;;;;13.35;8.65;;;;;;;11.98;53.67;97876.38;4911090;28;20461;-79
2023/04/09 07:04:15;;;;;;;12.68;8.38;;;;;;;11.65;53.61;97875.25;4913518;28;20209;-79
2023/04/09 07:06:40;;;;;;;20.95;12.80;;;;;;;11.91;53.03;97866.09;4928666;28;20332;-78
2023/04/09 07:09:06;;;;;;;19.48;12.05;;;;;;;11.97;53.45;97882.63;4911347;28;20449;-80
2023/04/09 07:11:31;;;;;;;19.40;11.23;;;;;;;12.29;52.30;97875.03;4923478;28;20210;-79
2023/04/09 07:13:58;;;;;;;21.85;13.00;;;;;;;12.39;51.56;97876.22;4918766;28;20667;-78
2023/04/09 07:16:23;;;;;;;16.90;9.00;;;;;;;12.55;51.49;97867.59;4895531;28;20231;-78
2023/04/09 07:18:49;;;;;;;21.05;11.55;;;;;;;12.40;52.13;97862.94;4928667;28;20213;-79
2023/04/09 07:21:15;;;;;;;23.55;13.07;;;;;;;12.63;51.78;97869.00;4921253;28;20283;-79
2023/04/09 07:23:40;;;;;;;15.80;9.05;;;;;;;12.93;50.25;97868.63;4908827;28;20434;-79
2023/04/09 07:26:06;;;;;;;14.23;8.60;;;;;;;13.22;49.61;97868.44;4900923;28;20181;-78
2023/04/09 07:28:33;;;;;;;20.25;11.60;;;;;;;13.44;49.25;97868.47;4896205;28;20265;-78
2023/04/09 07:31:00;;;;;;;12.25;9.52;;;;;;;13.71;49.03;97872.91;4911623;28;20319;-78
2023/04/09 07:33:25;;;;;;;12.73;8.68;;;;;;;13.79;48.08;97877.69;4881191;28;20257;-78
2023/04/09 07:35:50;;;;;;;16.38;10.10;;;;;;;14.20;48.56;97870.97;4905559;28;20655;-77
2023/04/09 07:38:16;;;;;;;18.55;11.88;;;;;;;14.32;46.99;97877.88;4908354;28;20583;-78
2023/04/09 07:40:41;;;;;;;13.48;8.50;;;;;;;14.53;46.58;97876.19;4896786;28;20218;-79
2023/04/09 07:43:07;;;;;;;11.50;8.55;;;;;;;14.77;45.52;97866.94;4913253;28;20194;-79
2023/04/09 07:45:32;;;;;;;11.73;8.73;;;;;;;14.82;44.75;97868.00;4917154;28;20321;-78
2023/04/09 07:47:57;;;;;;;8.43;6.43;;;;;;;14.91;43.86;97867.28;4910075;28;20457;-78
2023/04/09 07:50:23;;;;;;;10.50;8.00;;;;;;;15.10;44.78;97870.25;4895821;28;20777;-78
2023/04/09 07:52:48;;;;;;;9.50;6.22;;;;;;;15.36;44.15;97870.34;4894096;28;20178;-78
2023/04/09 07:55:14;;;;;;;9.20;6.40;;;;;;;15.48;44.17;97867.50;4895989;28;20209;-78
2023/04/09 07:57:39;;;;;;;10.50;6.88;;;;;;;15.41;42.92;97857.22;4927235;28;20212;-78
2023/04/09 08:00:05;;;;;;;8.35;5.40;;;;;;;15.67;42.56;97865.94;4912967;28;20367;-77
2023/04/09 08:02:31;;;;;;;8.88;6.07;;;;;;;15.46;41.16;97867.75;4910285;28;20201;-77
2023/04/09 08:04:56;;;;;;;8.63;6.28;;;;;;;15.65;42.31;97868.03;4945604;28;20465;-78
2023/04/09 08:07:22;;;;;;;8.55;6.00;;;;;;;15.30;42.87;97871.34;4910248;28;20613;-77
2023/04/09 08:09:47;;;;;;;6.25;4.88;;;;;;;15.77;42.65;97867.84;4894085;28;20161;-78
2023/04/09 08:12:13;;;;;;;7.70;5.65;;;;;;;16.00;41.25;97881.50;4893436;28;20532;-77
2023/04/09 08:14:40;;;;;;;7.85;6.07;;;;;;;16.02;41.60;97866.28;4887483;28;20276;-79
2023/04/09 08:17:05;;;;;;;8.38;5.47;;;;;;;15.94;41.57;97869.41;4924977;28;20486;-77
2023/04/09 08:19:30;;;;;;;7.53;5.30;;;;;;;16.19;41.19;97879.94;4926611;28;20881;-78
2023/04/09 08:21:57;;;;;;;7.25;5.18;;;;;;;16.57;39.04;97880.44;4896550;28;20196;-78
2023/04/09 08:24:23;;;;;;;5.63;4.53;;;;;;;16.99;38.15;97874.03;4913053;28;20201;-78
2023/04/09 08:26:48;;;;;;;5.60;3.55;;;;;;;17.08;35.70;97881.38;4907778;28;20201;-78
2023/04/09 08:29:14;;;;;;;5.88;3.97;;;;;;;17.14;37.61;97873.19;4909209;28;20519;-78
2023/04/09 08:31:40;;;;;;;7.72;5.50;;;;;;;16.50;39.04;97887.78;4912156;28;20243;-78
2023/04/09 08:34:09;;;;;;;6.80;5.60;;;;;;;16.78;39.87;97885.66;4910207;28;20236;-79
2023/04/09 08:36:34;;;;;;;7.15;5.55;;;;;;;16.81;39.28;97890.38;4924407;28;20403;-78
2023/04/09 08:39:00;;;;;;;6.45;5.35;;;;;;;16.88;39.74;97893.56;4928730;28;20250;-77
2023/04/09 08:41:28;;;;;;;3.72;3.30;;;;;;;16.71;35.55;97898.28;4943682;28;20186;-78
2023/04/09 08:43:54;;;;;;;5.20;3.45;;;;;;;16.77;37.14;97894.59;4916617;28;20186;-78
2023/04/09 08:46:19;;;;;;;4.90;3.30;;;;;;;16.71;36.24;97899.09;4893563;28;20342;-78
2023/04/09 08:48:46;;;;;;;4.97;3.90;;;;;;;16.58;35.46;97889.88;4927279;28;20289;-77
2023/04/09 08:51:13;;;;;;;4.88;3.58;;;;;;;16.48;36.67;97897.78;4910849;28;20201;-78
2023/04/09 08:53:41;;;;;;;4.25;3.42;;;;;;;17.39;37.37;97892.56;4910952;28;20200;-78
2023/04/09 08:56:06;;;;;;;3.90;3.00;;;;;;;17.85;35.78;97891.53;4944213;28;20433;-77
2023/04/09 08:58:31;;;;;;;3.42;3.05;;;;;;;18.31;35.58;97897.25;4926118;28;20277;-78
2023/04/09 09:00:57;;;;;;;3.78;3.25;;;;;;;18.77;33.34;97888.13;4926182;28;20440;-78
2023/04/09 09:03:22;;;;;;;3.47;2.80;;;;;;;18.65;33.69;97893.78;4890561;28;20354;-78
2023/04/09 09:05:48;;;;;;;5.07;3.70;;;;;;;18.75;32.78;97895.56;4901869;28;20225;-78
2023/04/09 09:08:23;;;;;;;3.67;3.38;;;;;;;19.43;33.23;97893.72;4910762;28;20175;-78
2023/04/09 09:10:48;;;;;;;5.03;3.72;;;;;;;19.15;32.88;97895.41;4919369;28;20287;-77
2023/04/09 09:13:23;;;;;;;4.05;2.90;;;;;;;19.06;30.81;97897.91;4947817;28;20158;-77
2023/04/09 09:15:53;;;;;;;3.65;3.35;;;;;;;18.68;31.83;97903.78;4911057;28;20274;-78
2023/04/09 09:18:19;;;;;;;5.43;4.05;;;;;;;18.44;31.03;97887.13;4910027;28;20632;-78
2023/04/09 09:20:45;;;;;;;4.18;3.72;;;;;;;18.34;33.10;97893.28;4931435;28;20724;-78
2023/04/09 09:23:10;;;;;;;3.95;3.50;;;;;;;17.88;34.19;97883.88;4897346;28;20208;-79
2023/04/09 09:25:40;;;;;;;5.13;3.85;;;;;;;18.49;33.61;97885.25;4918042;28;20721;-78
2023/04/09 09:28:10;;;;;;;4.88;3.72;;;;;;;18.75;33.88;97887.63;4914992;28;20225;-78
2023/04/09 09:30:38;;;;;;;3.97;3.50;;;;;;;18.73;32.59;97884.50;4913348;28;20350;-78
2023/04/09 09:33:08;;;;;;;5.03;4.03;;;;;;;18.30;34.14;97889.63;4921185;28;20352;-78
2023/04/09 09:35:50;;;;;;;3.63;3.33;;;;;;;17.94;34.17;97887.25;4927127;28;20219;-77
2023/04/09 09:38:16;;;;;;;4.60;4.20;;;;;;;17.09;33.49;97882.97;4929321;28;20685;-78
2023/04/09 09:40:41;;;;;;;4.75;4.07;;;;;;;17.12;34.75;97887.66;4911963;28;20252;-78
2023/04/09 09:43:07;;;;;;;4.10;3.70;;;;;;;17.11;35.57;97883.47;4928023;28;20258;-77
2023/04/09 09:45:32;;;;;;;4.25;3.85;;;;;;;17.40;35.52;97881.75;4914341;28;20208;-78
2023/04/09 09:47:58;;;;;;;6.20;4.55;;;;;;;17.37;33.82;97877.03;4931928;28;20398;-77
2023/04/09 09:50:27;;;;;;;6.05;4.95;;;;;;;17.03;36.48;97877.72;4931626;28;20213;-77
2023/04/09 09:53:01;;;;;;;6.75;5.13;;;;;;;17.58;37.20;97882.19;4915551;28;20185;-78
2023/04/09 09:55:30;;;;;;;5.65;4.50;;;;;;;17.90;37.02;97880.97;4904117;28;20196;-78
2023/04/09 09:57:55;;;;;;;5.90;4.45;;;;;;;18.04;36.23;97868.75;4914430;28;20104;-78
2023/04/09 10:00:24;;;;;;;6.30;4.78;;;;;;;17.61;35.21;97871.13;4895974;28;20278;-78
2023/04/09 10:02:58;;;;;;;7.25;5.03;;;;;;;18.16;36.21;97878.94;4927329;28;20347;-77
2023/04/09 10:05:26;;;;;;;4.40;3.77;;;;;;;17.77;33.58;97862.06;4923703;28;20209;-78
2023/04/09 10:07:59;;;;;;;5.75;4.30;;;;;;;17.58;34.67;97869.84;4930803;28;20315;-77
2023/04/09 10:10:25;;;;;;;5.15;4.38;;;;;;;17.47;35.43;97872.78;4929505;28;20348;-79
2023/04/09 10:12:51;;;;;;;6.90;4.72;;;;;;;17.45;36.71;97864.38;4909287;28;20393;-79
2023/04/09 10:15:17;;;;;;;5.95;4.88;;;;;;;17.62;37.19;97864.81;4911713;28;20328;-79
2023/04/09 10:17:43;;;;;;;5.35;4.30;;;;;;;18.34;36.68;97857.16;4927303;28;20197;-78
2023/04/09 10:20:18;;;;;;;5.15;4.13;;;;;;;18.57;34.60;97860.09;4911255;28;20175;-78
2023/04/09 10:22:51;;;;;;;4.95;4.30;;;;;;;18.41;33.69;97863.97;4928484;28;20651;-78
2023/04/09 10:25:17;;;;;;;4.32;3.90;;;;;;;18.25;33.66;97858.84;4897905;28;20205;-78
2023/04/09 10:27:47;;;;;;;5.32;3.83;;;;;;;17.95;34.71;97857.22;4924075;28;20386;-78
2023/04/09 10:30:32;;;;;;;4.38;3.63;;;;;;;17.85;34.37;97859.91;4909711;28;20240;-77
2023/04/09 10:33:12;;;;;;;4.03;3.50;;;;;;;17.85;33.64;97855.41;4921281;28;20205;-78
2023/04/09 10:35:37;;;;;;;4.00;2.95;;;;;;;17.55;32.68;97856.44;4923316;28;20205;-77
2023/04/09 10:38:06;;;;;;;3.22;2.85;;;;;;;17.60;33.80;97854.53;4929621;28;20178;-78
2023/04/09 10:40:31;;;;;;;4.30;3.63;;;;;;;17.67;32.36;97851.59;4924639;28;20255;-78
2023/04/09 10:42:58;;;;;;;3.13;2.80;;;;;;;17.52;32.34;97860.38;4927358;28;20378;-78
2023/04/09 10:45:25;;;;;;;3.50;3.20;;;;;;;17.71;34.51;97852.63;4928625;28;20166;-79
2023/04/09 10:47:50;;;;;;;3.15;2.80;;;;;;;17.29;32.84;97859.19;4894064;28;20264;-78
2023/04/09 10:50:19;;;;;;;3.13;2.83;;;;;;;17.57;31.54;97857.72;4910715;28;20355;-78
2023/04/09 10:52:45;;;;;;;3.03;2.70;;;;;;;18.01;32.32;97852.69;4913945;28;20163;-78
2023/04/09 10:55:29;;;;;;;3.60;3.10;;;;;;;17.96;30.81;97851.69;4928450;28;20447;-78
2023/04/09 10:57:55;;;;;;;3.95;3.45;;;;;;;17.13;33.16;97847.16;4912149;28;20350;-76
2023/04/09 11:00:20;;;;;;;4.43;3.40;;;;;;;16.82;34.38;97852.50;4909572;28;20473;-78
2023/04/09 11:03:05;;;;;;;4.22;3.47;;;;;;;17.01;33.44;97847.47;4901048;28;20185;-78
2023/04/09 11:05:35;;;;;;;3.80;2.97;;;;;;;17.11;34.54;97849.28;4895615;28;20318;-78
2023/04/09 11:08:08;;;;;;;3.95;3.53;;;;;;;17.31;34.13;97846.53;4887475;28;20298;-77
2023/04/09 11:10:34;;;;;;;4.18;3.50;;;;;;;17.30;35.13;97855.50;4899819;28;20287;-78
2023/04/09 11:13:00;;;;;;;4.07;3.60;;;;;;;17.24;33.73;97848.69;4928804;28;20443;-78
2023/04/09 11:15:26;;;;;;;5.50;4.15;;;;;;;17.23;34.10;97857.63;4906788;28;20152;-77
2023/04/09 11:17:52;;;;;;;4.85;3.10;;;;;;;16.92;33.51;97857.75;4930054;28;20293;-77
2023/04/09 11:20:22;;;;;;;4.15;3.33;;;;;;;16.60;32.96;97850.97;4898728;28;20218;-78
2023/04/09 11:22:52;;;;;;;4.55;4.00;;;;;;;16.60;34.38;97852.81;4912119;28;20213;-78
2023/04/09 11:25:26;;;;;;;3.95;3.35;;;;;;;16.95;34.05;97841.44;4928377;28;20948;-78
2023/04/09 11:27:52;;;;;;;4.27;3.33;;;;;;;17.75;33.41;97842.31;4894231;28;20598;-78
2023/04/09 11:30:18;;;;;;;3.80;3.05;;;;;;;18.25;30.96;97839.59;4920886;28;20573;-78